sensor_id;sensor_type;location;lat;lon;timestamp;P1;durP1;ratioP1;P2;durP2;ratioP2
77872;SDS011;67068;52.116;4.440;2023-04-24T00:01:05;1.70;;;0.40;;
77872;SDS011;67068;52.116;4.440;2023-04-24T00:03:32;2.95;;;0.70;;
77872;SDS011;67068;52.116;4.440;2023-04-24T00:05:57;1.48;;;0.40;;
77872;SDS011;67068;52.116;4.440;2023-04-24T00:08:23;2.42;;;0.55;;
77872;SDS011;67068;52.116;4.440;2023-04-24T00:10:49;1.27;;;0.40;;
77872;SDS011;67068;52.116;4.440;2023-04-24T00:13:14;2.17;;;0.60;;
77872;SDS011;67068;52.116;4.440;2023-04-24T00:15:39;1.77;;;0.40;;
77872;SDS011;67068;52.116;4.440;2023-04-24T00:18:05;1.40;;;0.40;;
77872;SDS011;67068;52.116;4.440;2023-04-24T00:20:30;2.10;;;0.37;;
77872;SDS011;67068;52.116;4.440;2023-04-24T00:22:57;2.40;;;0.43;;
77872;SDS011;67068;52.116;4.440;2023-04-24T00:25:22;2.23;;;0.50;;
77872;SDS011;67068;52.116;4.440;2023-04-24T00:27:47;2.57;;;0.50;;
77872;SDS011;67068;52.116;4.440;2023-04-24T00:30:13;1.20;;;0.40;;
77872;SDS011;67068;52.116;4.440;2023-04-24T00:32:38;1.30;;;0.50;;
77872;SDS011;67068;52.116;4.440;2023-04-24T00:35:04;1.73;;;0.43;;
77872;SDS011;67068;52.116;4.440;2023-04-24T00:37:29;3.83;;;0.60;;
77872;SDS011;67068;52.116;4.440;2023-04-24T00:39:54;2.33;;;0.60;;
77872;SDS011;67068;52.116;4.440;2023-04-24T00:42:20;1.58;;;0.50;;
77872;SDS011;67068;52.116;4.440;2023-04-24T00:44:45;1.97;;;0.50;;
77872;SDS011;67068;52.116;4.440;2023-04-24T00:47:10;1.80;;;0.50;;
77872;SDS011;67068;52.116;4.440;2023-04-24T00:49:36;1.70;;;0.40;;
77872;SDS011;67068;52.116;4.440;2023-04-24T00:52:02;3.13;;;0.70;;
77872;SDS011;67068;52.116;4.440;2023-04-24T00:54:27;3.20;;;0.50;;
77872;SDS011;67068;52.116;4.440;2023-04-24T00:56:52;1.87;;;0.40;;
77872;SDS011;67068;52.116;4.440;2023-04-24T00:59:17;1.70;;;0.37;;
77872;SDS011;67068;52.116;4.440;2023-04-24T01:01:43;1.50;;;0.30;;
77872;SDS011;67068;52.116;4.440;2023-04-24T01:04:09;2.17;;;0.50;;
77872;SDS011;67068;52.116;4.440;2023-04-24T01:06:35;1.50;;;0.50;;
77872;SDS011;67068;52.116;4.440;2023-04-24T01:09:00;0.98;;;0.47;;
77872;SDS011;67068;52.116;4.440;2023-04-24T01:11:26;2.60;;;0.50;;
77872;SDS011;67068;52.116;4.440;2023-04-24T01:13:51;1.60;;;0.50;;
77872;SDS011;67068;52.116;4.440;2023-04-24T01:16:16;2.03;;;0.50;;
77872;SDS011;67068;52.116;4.440;2023-04-24T01:18:42;2.88;;;0.50;;
77872;SDS011;67068;52.116;4.440;2023-04-24T01:21:08;1.58;;;0.60;;
77872;SDS011;67068;52.116;4.440;2023-04-24T01:23:33;1.33;;;0.30;;
77872;SDS011;67068;52.116;4.440;2023-04-24T01:25:58;1.77;;;0.40;;
77872;SDS011;67068;52.116;4.440;2023-04-24T01:28:24;0.80;;;0.30;;
77872;SDS011;67068;52.116;4.440;2023-04-24T01:30:49;1.63;;;0.38;;
77872;SDS011;67068;52.116;4.440;2023-04-24T01:33:15;1.55;;;0.45;;
77872;SDS011;67068;52.116;4.440;2023-04-24T01:35:40;2.25;;;0.70;;
77872;SDS011;67068;52.116;4.440;2023-04-24T01:38:05;2.03;;;0.50;;
77872;SDS011;67068;52.116;4.440;2023-04-24T01:40:31;1.47;;;0.40;;
77872;SDS011;67068;52.116;4.440;2023-04-24T01:42:57;1.95;;;0.35;;
77872;SDS011;67068;52.116;4.440;2023-04-24T01:45:22;2.42;;;0.50;;
77872;SDS011;67068;52.116;4.440;2023-04-24T01:47:47;1.80;;;0.43;;
77872;SDS011;67068;52.116;4.440;2023-04-24T01:50:14;2.97;;;0.70;;
77872;SDS011;67068;52.116;4.440;2023-04-24T01:52:39;2.17;;;0.40;;
77872;SDS011;67068;52.116;4.440;2023-04-24T01:55:04;1.33;;;0.30;;
77872;SDS011;67068;52.116;4.440;2023-04-24T01:57:30;1.58;;;0.50;;
77872;SDS011;67068;52.116;4.440;2023-04-24T01:59:56;2.22;;;0.40;;
77872;SDS011;67068;52.116;4.440;2023-04-24T02:02:21;3.72;;;0.55;;
77872;SDS011;67068;52.116;4.440;2023-04-24T02:04:48;3.40;;;0.60;;
77872;SDS011;67068;52.116;4.440;2023-04-24T02:07:13;2.20;;;0.40;;
77872;SDS011;67068;52.116;4.440;2023-04-24T02:09:39;1.25;;;0.30;;
77872;SDS011;67068;52.116;4.440;2023-04-24T02:12:04;2.23;;;0.50;;
77872;SDS011;67068;52.116;4.440;2023-04-24T02:14:29;1.50;;;0.40;;
77872;SDS011;67068;52.116;4.440;2023-04-24T02:16:55;1.17;;;0.43;;
77872;SDS011;67068;52.116;4.440;2023-04-24T02:19:20;0.97;;;0.30;;
77872;SDS011;67068;52.116;4.440;2023-04-24T02:21:45;1.13;;;0.50;;
77872;SDS011;67068;52.116;4.440;2023-04-24T02:24:10;1.90;;;0.40;;
77872;SDS011;67068;52.116;4.440;2023-04-24T02:26:35;2.00;;;0.40;;
77872;SDS011;67068;52.116;4.440;2023-04-24T02:29:01;1.50;;;0.37;;
77872;SDS011;67068;52.116;4.440;2023-04-24T02:31:26;1.30;;;0.43;;
77872;SDS011;67068;52.116;4.440;2023-04-24T02:33:51;1.60;;;0.40;;
77872;SDS011;67068;52.116;4.440;2023-04-24T02:36:17;0.80;;;0.30;;
77872;SDS011;67068;52.116;4.440;2023-04-24T02:38:42;1.97;;;0.40;;
77872;SDS011;67068;52.116;4.440;2023-04-24T02:41:07;2.03;;;0.30;;
77872;SDS011;67068;52.116;4.440;2023-04-24T02:43:32;2.72;;;0.50;;
77872;SDS011;67068;52.116;4.440;2023-04-24T02:45:58;1.05;;;0.28;;
77872;SDS011;67068;52.116;4.440;2023-04-24T02:48:24;1.05;;;0.43;;
77872;SDS011;67068;52.116;4.440;2023-04-24T02:50:49;1.37;;;0.50;;
77872;SDS011;67068;52.116;4.440;2023-04-24T02:53:15;1.10;;;0.30;;
77872;SDS011;67068;52.116;4.440;2023-04-24T02:55:40;1.77;;;0.50;;
77872;SDS011;67068;52.116;4.440;2023-04-24T02:58:06;2.27;;;0.30;;
77872;SDS011;67068;52.116;4.440;2023-04-24T03:00:31;1.60;;;0.40;;
77872;SDS011;67068;52.116;4.440;2023-04-24T03:02:56;1.90;;;0.40;;
77872;SDS011;67068;52.116;4.440;2023-04-24T03:05:21;1.30;;;0.33;;
77872;SDS011;67068;52.116;4.440;2023-04-24T03:07:47;0.87;;;0.33;;
77872;SDS011;67068;52.116;4.440;2023-04-24T03:10:12;2.50;;;0.30;;
77872;SDS011;67068;52.116;4.440;2023-04-24T03:12:37;2.90;;;0.65;;
77872;SDS011;67068;52.116;4.440;2023-04-24T03:15:03;2.07;;;0.40;;
77872;SDS011;67068;52.116;4.440;2023-04-24T03:17:28;0.98;;;0.40;;
77872;SDS011;67068;52.116;4.440;2023-04-24T03:19:53;2.08;;;0.30;;
77872;SDS011;67068;52.116;4.440;2023-04-24T03:22:18;0.47;;;0.40;;
77872;SDS011;67068;52.116;4.440;2023-04-24T03:24:44;1.17;;;0.30;;
77872;SDS011;67068;52.116;4.440;2023-04-24T03:27:09;3.73;;;0.80;;
77872;SDS011;67068;52.116;4.440;2023-04-24T03:29:34;1.10;;;0.40;;
77872;SDS011;67068;52.116;4.440;2023-04-24T03:31:59;2.23;;;0.50;;
77872;SDS011;67068;52.116;4.440;2023-04-24T03:34:25;1.25;;;0.40;;
77872;SDS011;67068;52.116;4.440;2023-04-24T03:36:50;0.30;;;0.20;;
77872;SDS011;67068;52.116;4.440;2023-04-24T03:39:16;2.50;;;0.40;;
77872;SDS011;67068;52.116;4.440;2023-04-24T03:41:41;1.67;;;0.40;;
77872;SDS011;67068;52.116;4.440;2023-04-24T03:44:06;4.23;;;0.67;;
77872;SDS011;67068;52.116;4.440;2023-04-24T03:46:31;1.10;;;0.30;;
77872;SDS011;67068;52.116;4.440;2023-04-24T03:48:57;1.07;;;0.30;;
77872;SDS011;67068;52.116;4.440;2023-04-24T03:51:22;2.27;;;0.40;;
77872;SDS011;67068;52.116;4.440;2023-04-24T03:53:47;0.88;;;0.25;;
77872;SDS011;67068;52.116;4.440;2023-04-24T03:56:13;1.15;;;0.30;;
77872;SDS011;67068;52.116;4.440;2023-04-24T03:58:38;1.70;;;0.70;;
77872;SDS011;67068;52.116;4.440;2023-04-24T04:01:03;2.00;;;0.33;;
77872;SDS011;67068;52.116;4.440;2023-04-24T04:03:28;3.40;;;0.50;;
77872;SDS011;67068;52.116;4.440;2023-04-24T04:05:54;0.90;;;0.37;;
77872;SDS011;67068;52.116;4.440;2023-04-24T04:08:19;2.37;;;0.37;;
77872;SDS011;67068;52.116;4.440;2023-04-24T04:10:44;0.53;;;0.20;;
77872;SDS011;67068;52.116;4.440;2023-04-24T04:13:09;1.20;;;0.30;;
77872;SDS011;67068;52.116;4.440;2023-04-24T04:15:35;1.63;;;0.40;;
77872;SDS011;67068;52.116;4.440;2023-04-24T04:18:00;2.35;;;0.50;;
77872;SDS011;67068;52.116;4.440;2023-04-24T04:20:25;1.17;;;0.30;;
77872;SDS011;67068;52.116;4.440;2023-04-24T04:22:51;0.43;;;0.20;;
77872;SDS011;67068;52.116;4.440;2023-04-24T04:25:16;1.40;;;0.30;;
77872;SDS011;67068;52.116;4.440;2023-04-24T04:27:44;2.00;;;0.40;;
77872;SDS011;67068;52.116;4.440;2023-04-24T04:30:09;1.30;;;0.47;;
77872;SDS011;67068;52.116;4.440;2023-04-24T04:32:34;1.88;;;0.50;;
77872;SDS011;67068;52.116;4.440;2023-04-24T04:35:00;2.37;;;0.57;;
77872;SDS011;67068;52.116;4.440;2023-04-24T04:37:31;2.05;;;0.40;;
77872;SDS011;67068;52.116;4.440;2023-04-24T04:39:58;1.40;;;0.50;;
77872;SDS011;67068;52.116;4.440;2023-04-24T04:42:23;1.63;;;0.60;;
77872;SDS011;67068;52.116;4.440;2023-04-24T04:44:49;2.42;;;0.52;;
77872;SDS011;67068;52.116;4.440;2023-04-24T04:47:15;2.10;;;0.52;;
77872;SDS011;67068;52.116;4.440;2023-04-24T04:49:41;4.45;;;0.65;;
77872;SDS011;67068;52.116;4.440;2023-04-24T04:52:06;2.45;;;0.60;;
77872;SDS011;67068;52.116;4.440;2023-04-24T04:54:31;3.23;;;0.77;;
77872;SDS011;67068;52.116;4.440;2023-04-24T04:56:57;0.70;;;0.43;;
77872;SDS011;67068;52.116;4.440;2023-04-24T04:59:22;2.90;;;0.50;;
77872;SDS011;67068;52.116;4.440;2023-04-24T05:01:47;3.07;;;0.50;;
77872;SDS011;67068;52.116;4.440;2023-04-24T05:04:12;2.53;;;0.70;;
77872;SDS011;67068;52.116;4.440;2023-04-24T05:06:38;2.60;;;0.57;;
77872;SDS011;67068;52.116;4.440;2023-04-24T05:09:03;3.17;;;0.60;;
77872;SDS011;67068;52.116;4.440;2023-04-24T05:11:28;2.72;;;0.90;;
77872;SDS011;67068;52.116;4.440;2023-04-24T05:13:54;4.22;;;0.80;;
77872;SDS011;67068;52.116;4.440;2023-04-24T05:16:20;3.23;;;0.80;;
77872;SDS011;67068;52.116;4.440;2023-04-24T05:18:45;2.47;;;0.70;;
77872;SDS011;67068;52.116;4.440;2023-04-24T05:21:10;3.03;;;0.80;;
77872;SDS011;67068;52.116;4.440;2023-04-24T05:23:36;4.57;;;1.08;;
77872;SDS011;67068;52.116;4.440;2023-04-24T05:26:01;4.67;;;1.07;;
77872;SDS011;67068;52.116;4.440;2023-04-24T05:28:26;6.83;;;1.10;;
77872;SDS011;67068;52.116;4.440;2023-04-24T05:30:54;4.45;;;1.02;;
77872;SDS011;67068;52.116;4.440;2023-04-24T05:33:24;4.85;;;1.20;;
77872;SDS011;67068;52.116;4.440;2023-04-24T05:35:49;4.38;;;1.00;;
77872;SDS011;67068;52.116;4.440;2023-04-24T05:38:15;5.37;;;1.10;;
77872;SDS011;67068;52.116;4.440;2023-04-24T05:40:42;6.03;;;1.40;;
77872;SDS011;67068;52.116;4.440;2023-04-24T05:43:08;6.30;;;1.30;;
77872;SDS011;67068;52.116;4.440;2023-04-24T05:45:33;5.97;;;1.17;;
77872;SDS011;67068;52.116;4.440;2023-04-24T05:48:00;5.18;;;1.20;;
77872;SDS011;67068;52.116;4.440;2023-04-24T05:50:26;6.27;;;1.30;;
77872;SDS011;67068;52.116;4.440;2023-04-24T05:52:51;5.90;;;1.10;;
77872;SDS011;67068;52.116;4.440;2023-04-24T05:55:16;4.40;;;1.30;;
77872;SDS011;67068;52.116;4.440;2023-04-24T05:57:42;5.90;;;1.20;;
77872;SDS011;67068;52.116;4.440;2023-04-24T06:00:07;7.20;;;1.40;;
77872;SDS011;67068;52.116;4.440;2023-04-24T06:02:33;5.85;;;1.80;;
77872;SDS011;67068;52.116;4.440;2023-04-24T06:04:58;5.73;;;1.50;;
77872;SDS011;67068;52.116;4.440;2023-04-24T06:07:24;5.93;;;1.40;;
77872;SDS011;67068;52.116;4.440;2023-04-24T06:09:51;5.30;;;1.30;;
77872;SDS011;67068;52.116;4.440;2023-04-24T06:12:17;5.80;;;1.70;;
77872;SDS011;67068;52.116;4.440;2023-04-24T06:14:42;5.67;;;1.70;;
77872;SDS011;67068;52.116;4.440;2023-04-24T06:17:07;5.67;;;1.53;;
77872;SDS011;67068;52.116;4.440;2023-04-24T06:19:32;5.43;;;1.30;;
77872;SDS011;67068;52.116;4.440;2023-04-24T06:21:57;5.47;;;1.47;;
77872;SDS011;67068;52.116;4.440;2023-04-24T06:24:26;7.73;;;1.83;;
77872;SDS011;67068;52.116;4.440;2023-04-24T06:26:52;6.03;;;1.60;;
77872;SDS011;67068;52.116;4.440;2023-04-24T06:29:17;7.70;;;1.60;;
77872;SDS011;67068;52.116;4.440;2023-04-24T06:31:42;9.53;;;1.93;;
77872;SDS011;67068;52.116;4.440;2023-04-24T06:34:07;9.43;;;1.43;;
77872;SDS011;67068;52.116;4.440;2023-04-24T06:36:33;4.70;;;1.50;;
77872;SDS011;67068;52.116;4.440;2023-04-24T06:39:00;7.05;;;1.60;;
77872;SDS011;67068;52.116;4.440;2023-04-24T06:41:25;7.78;;;1.60;;
77872;SDS011;67068;52.116;4.440;2023-04-24T06:43:51;6.90;;;1.70;;
77872;SDS011;67068;52.116;4.440;2023-04-24T06:46:16;5.90;;;1.53;;
77872;SDS011;67068;52.116;4.440;2023-04-24T06:48:41;8.65;;;1.50;;
77872;SDS011;67068;52.116;4.440;2023-04-24T06:51:07;4.60;;;1.57;;
77872;SDS011;67068;52.116;4.440;2023-04-24T06:53:32;7.72;;;1.70;;
77872;SDS011;67068;52.116;4.440;2023-04-24T06:55:58;6.90;;;1.52;;
77872;SDS011;67068;52.116;4.440;2023-04-24T06:58:24;8.43;;;1.60;;
77872;SDS011;67068;52.116;4.440;2023-04-24T07:00:49;8.98;;;1.90;;
77872;SDS011;67068;52.116;4.440;2023-04-24T07:03:14;8.33;;;2.17;;
77872;SDS011;67068;52.116;4.440;2023-04-24T07:05:39;7.33;;;1.60;;
77872;SDS011;67068;52.116;4.440;2023-04-24T07:08:05;9.70;;;2.23;;
77872;SDS011;67068;52.116;4.440;2023-04-24T07:10:31;7.60;;;1.58;;
77872;SDS011;67068;52.116;4.440;2023-04-24T07:12:59;8.77;;;1.70;;
77872;SDS011;67068;52.116;4.440;2023-04-24T07:15:24;7.07;;;1.98;;
77872;SDS011;67068;52.116;4.440;2023-04-24T07:17:49;5.90;;;1.70;;
77872;SDS011;67068;52.116;4.440;2023-04-24T07:20:15;7.13;;;1.73;;
77872;SDS011;67068;52.116;4.440;2023-04-24T07:22:40;7.05;;;1.63;;
77872;SDS011;67068;52.116;4.440;2023-04-24T07:25:06;6.00;;;1.52;;
77872;SDS011;67068;52.116;4.440;2023-04-24T07:27:31;7.47;;;1.50;;
77872;SDS011;67068;52.116;4.440;2023-04-24T07:29:56;7.18;;;1.80;;
77872;SDS011;67068;52.116;4.440;2023-04-24T07:32:22;10.43;;;1.40;;
77872;SDS011;67068;52.116;4.440;2023-04-24T07:34:47;12.40;;;1.77;;
77872;SDS011;67068;52.116;4.440;2023-04-24T07:37:12;7.53;;;1.63;;
77872;SDS011;67068;52.116;4.440;2023-04-24T07:39:37;7.83;;;1.73;;
77872;SDS011;67068;52.116;4.440;2023-04-24T07:42:03;9.10;;;1.90;;
77872;SDS011;67068;52.116;4.440;2023-04-24T07:44:28;8.43;;;1.52;;
77872;SDS011;67068;52.116;4.440;2023-04-24T07:46:53;9.45;;;1.63;;
77872;SDS011;67068;52.116;4.440;2023-04-24T07:49:19;7.63;;;1.73;;
77872;SDS011;67068;52.116;4.440;2023-04-24T07:51:44;5.53;;;1.38;;
77872;SDS011;67068;52.116;4.440;2023-04-24T07:54:10;9.07;;;1.58;;
77872;SDS011;67068;52.116;4.440;2023-04-24T07:56:35;7.33;;;1.30;;
77872;SDS011;67068;52.116;4.440;2023-04-24T07:59:03;8.23;;;1.63;;
77872;SDS011;67068;52.116;4.440;2023-04-24T08:01:28;6.17;;;1.60;;
77872;SDS011;67068;52.116;4.440;2023-04-24T08:03:54;7.63;;;2.10;;
77872;SDS011;67068;52.116;4.440;2023-04-24T08:06:19;7.68;;;1.40;;
77872;SDS011;67068;52.116;4.440;2023-04-24T08:08:45;7.88;;;1.52;;
77872;SDS011;67068;52.116;4.440;2023-04-24T08:11:10;6.55;;;1.40;;
77872;SDS011;67068;52.116;4.440;2023-04-24T08:13:35;9.70;;;1.90;;
77872;SDS011;67068;52.116;4.440;2023-04-24T08:16:00;9.33;;;1.50;;
77872;SDS011;67068;52.116;4.440;2023-04-24T08:18:26;7.10;;;1.30;;
77872;SDS011;67068;52.116;4.440;2023-04-24T08:20:51;5.82;;;1.50;;
77872;SDS011;67068;52.116;4.440;2023-04-24T08:23:16;6.50;;;1.30;;
77872;SDS011;67068;52.116;4.440;2023-04-24T08:25:42;10.50;;;1.27;;
77872;SDS011;67068;52.116;4.440;2023-04-24T08:28:08;8.00;;;1.50;;
77872;SDS011;67068;52.116;4.440;2023-04-24T08:30:33;5.03;;;1.20;;
77872;SDS011;67068;52.116;4.440;2023-04-24T08:32:58;8.77;;;1.50;;
77872;SDS011;67068;52.116;4.440;2023-04-24T08:35:24;6.80;;;1.40;;
77872;SDS011;67068;52.116;4.440;2023-04-24T08:37:49;5.10;;;1.43;;
77872;SDS011;67068;52.116;4.440;2023-04-24T08:40:15;5.40;;;1.50;;
77872;SDS011;67068;52.116;4.440;2023-04-24T08:42:43;7.85;;;1.60;;
77872;SDS011;67068;52.116;4.440;2023-04-24T08:45:09;7.03;;;1.55;;
77872;SDS011;67068;52.116;4.440;2023-04-24T08:47:35;7.25;;;1.50;;
77872;SDS011;67068;52.116;4.440;2023-04-24T08:50:00;7.95;;;1.60;;
77872;SDS011;67068;52.116;4.440;2023-04-24T08:52:27;6.47;;;1.40;;
77872;SDS011;67068;52.116;4.440;2023-04-24T08:54:53;10.15;;;1.70;;
77872;SDS011;67068;52.116;4.440;2023-04-24T08:57:19;5.78;;;1.10;;
77872;SDS011;67068;52.116;4.440;2023-04-24T08:59:44;7.22;;;1.63;;
77872;SDS011;67068;52.116;4.440;2023-04-24T09:02:10;7.13;;;1.40;;
77872;SDS011;67068;52.116;4.440;2023-04-24T09:04:36;5.05;;;1.17;;
77872;SDS011;67068;52.116;4.440;2023-04-24T09:07:02;5.45;;;1.40;;
77872;SDS011;67068;52.116;4.440;2023-04-24T09:09:28;5.50;;;1.30;;
77872;SDS011;67068;52.116;4.440;2023-04-24T09:11:55;8.75;;;1.55;;
77872;SDS011;67068;52.116;4.440;2023-04-24T09:14:20;5.20;;;1.25;;
77872;SDS011;67068;52.116;4.440;2023-04-24T09:16:46;7.38;;;1.27;;
77872;SDS011;67068;52.116;4.440;2023-04-24T09:19:11;5.93;;;1.35;;
77872;SDS011;67068;52.116;4.440;2023-04-24T09:21:37;4.63;;;1.05;;
77872;SDS011;67068;52.116;4.440;2023-04-24T09:24:06;5.63;;;1.30;;
77872;SDS011;67068;52.116;4.440;2023-04-24T09:26:34;4.22;;;1.17;;
77872;SDS011;67068;52.116;4.440;2023-04-24T09:29:00;8.65;;;1.50;;
77872;SDS011;67068;52.116;4.440;2023-04-24T09:31:26;9.85;;;1.40;;
77872;SDS011;67068;52.116;4.440;2023-04-24T09:33:56;5.65;;;1.08;;
77872;SDS011;67068;52.116;4.440;2023-04-24T09:36:26;6.25;;;1.33;;
77872;SDS011;67068;52.116;4.440;2023-04-24T09:38:53;5.15;;;0.93;;
77872;SDS011;67068;52.116;4.440;2023-04-24T09:41:18;6.18;;;1.08;;
77872;SDS011;67068;52.116;4.440;2023-04-24T09:43:44;5.47;;;1.30;;
77872;SDS011;67068;52.116;4.440;2023-04-24T09:46:09;5.07;;;1.00;;
77872;SDS011;67068;52.116;4.440;2023-04-24T09:48:35;5.70;;;1.02;;
77872;SDS011;67068;52.116;4.440;2023-04-24T09:51:01;10.90;;;1.60;;
77872;SDS011;67068;52.116;4.440;2023-04-24T09:53:28;5.80;;;1.00;;
77872;SDS011;67068;52.116;4.440;2023-04-24T09:55:53;8.30;;;1.47;;
77872;SDS011;67068;52.116;4.440;2023-04-24T09:58:24;8.55;;;1.40;;
77872;SDS011;67068;52.116;4.440;2023-04-24T10:00:52;9.90;;;1.42;;
77872;SDS011;67068;52.116;4.440;2023-04-24T10:03:18;5.78;;;1.10;;
77872;SDS011;67068;52.116;4.440;2023-04-24T10:05:44;5.03;;;1.07;;
77872;SDS011;67068;52.116;4.440;2023-04-24T10:08:11;7.25;;;1.08;;
77872;SDS011;67068;52.116;4.440;2023-04-24T10:10:44;7.30;;;1.23;;
77872;SDS011;67068;52.116;4.440;2023-04-24T10:13:10;10.38;;;1.48;;
77872;SDS011;67068;52.116;4.440;2023-04-24T10:15:36;5.90;;;1.25;;
77872;SDS011;67068;52.116;4.440;2023-04-24T10:18:01;8.13;;;1.10;;
77872;SDS011;67068;52.116;4.440;2023-04-24T10:20:27;5.25;;;1.38;;
77872;SDS011;67068;52.116;4.440;2023-04-24T10:22:54;8.77;;;1.40;;
77872;SDS011;67068;52.116;4.440;2023-04-24T10:25:20;5.00;;;1.13;;
77872;SDS011;67068;52.116;4.440;2023-04-24T10:27:46;4.97;;;1.30;;
77872;SDS011;67068;52.116;4.440;2023-04-24T10:30:12;5.30;;;1.08;;
77872;SDS011;67068;52.116;4.440;2023-04-24T10:32:38;5.32;;;1.00;;
77872;SDS011;67068;52.116;4.440;2023-04-24T10:35:03;4.50;;;1.00;;
77872;SDS011;67068;52.116;4.440;2023-04-24T10:37:28;5.82;;;1.10;;
77872;SDS011;67068;52.116;4.440;2023-04-24T10:40:00;5.28;;;1.05;;
77872;SDS011;67068;52.116;4.440;2023-04-24T10:42:27;7.33;;;1.17;;
77872;SDS011;67068;52.116;4.440;2023-04-24T10:44:52;5.93;;;0.88;;
77872;SDS011;67068;52.116;4.440;2023-04-24T10:47:18;4.57;;;1.00;;
77872;SDS011;67068;52.116;4.440;2023-04-24T10:49:43;5.13;;;1.23;;
77872;SDS011;67068;52.116;4.440;2023-04-24T10:52:09;6.18;;;1.40;;
77872;SDS011;67068;52.116;4.440;2023-04-24T10:54:35;5.63;;;1.10;;
77872;SDS011;67068;52.116;4.440;2023-04-24T10:59:44;6.32;;;1.10;;
77872;SDS011;67068;52.116;4.440;2023-04-24T11:02:10;8.20;;;1.30;;
77872;SDS011;67068;52.116;4.440;2023-04-24T11:04:35;5.57;;;1.07;;
77872;SDS011;67068;52.116;4.440;2023-04-24T11:07:02;5.57;;;1.02;;
77872;SDS011;67068;52.116;4.440;2023-04-24T11:09:28;4.07;;;0.93;;
77872;SDS011;67068;52.116;4.440;2023-04-24T11:12:07;5.65;;;1.00;;
77872;SDS011;67068;52.116;4.440;2023-04-24T11:17:32;5.90;;;0.75;;
77872;SDS011;67068;52.116;4.440;2023-04-24T11:20:02;6.70;;;1.13;;
77872;SDS011;67068;52.116;4.440;2023-04-24T11:22:29;5.55;;;0.80;;
77872;SDS011;67068;52.116;4.440;2023-04-24T11:24:58;5.30;;;0.80;;
77872;SDS011;67068;52.116;4.440;2023-04-24T11:27:24;5.63;;;0.90;;
77872;SDS011;67068;52.116;4.440;2023-04-24T11:35:07;5.97;;;1.20;;
77872;SDS011;67068;52.116;4.440;2023-04-24T11:37:37;5.53;;;0.90;;
77872;SDS011;67068;52.116;4.440;2023-04-24T11:40:02;4.25;;;0.80;;
77872;SDS011;67068;52.116;4.440;2023-04-24T11:42:29;5.10;;;0.95;;
77872;SDS011;67068;52.116;4.440;2023-04-24T11:44:58;5.85;;;0.80;;
77872;SDS011;67068;52.116;4.440;2023-04-24T11:47:31;4.15;;;1.00;;
77872;SDS011;67068;52.116;4.440;2023-04-24T11:49:58;7.10;;;0.82;;
77872;SDS011;67068;52.116;4.440;2023-04-24T11:52:24;4.93;;;0.85;;
77872;SDS011;67068;52.116;4.440;2023-04-24T11:54:49;8.23;;;1.25;;
77872;SDS011;67068;52.116;4.440;2023-04-24T11:57:15;4.82;;;0.90;;
77872;SDS011;67068;52.116;4.440;2023-04-24T11:59:40;7.50;;;0.90;;
77872;SDS011;67068;52.116;4.440;2023-04-24T12:02:05;6.27;;;1.30;;
77872;SDS011;67068;52.116;4.440;2023-04-24T12:04:38;3.20;;;0.75;;
77872;SDS011;67068;52.116;4.440;2023-04-24T12:07:03;5.05;;;0.98;;
77872;SDS011;67068;52.116;4.440;2023-04-24T12:09:50;2.55;;;0.70;;
77872;SDS011;67068;52.116;4.440;2023-04-24T12:12:24;8.30;;;1.30;;
77872;SDS011;67068;52.116;4.440;2023-04-24T12:14:52;4.97;;;0.68;;
77872;SDS011;67068;52.116;4.440;2023-04-24T12:17:23;5.78;;;1.00;;
77872;SDS011;67068;52.116;4.440;2023-04-24T12:19:48;4.47;;;0.90;;
77872;SDS011;67068;52.116;4.440;2023-04-24T12:22:14;5.22;;;1.00;;
77872;SDS011;67068;52.116;4.440;2023-04-24T12:25:13;6.22;;;1.17;;
77872;SDS011;67068;52.116;4.440;2023-04-24T12:27:32;5.60;;;1.00;;
77872;SDS011;67068;52.116;4.440;2023-04-24T12:29:58;4.68;;;1.13;;
77872;SDS011;67068;52.116;4.440;2023-04-24T12:32:24;4.90;;;0.82;;
77872;SDS011;67068;52.116;4.440;2023-04-24T12:34:50;6.78;;;1.10;;
77872;SDS011;67068;52.116;4.440;2023-04-24T12:37:16;6.82;;;0.85;;
77872;SDS011;67068;52.116;4.440;2023-04-24T12:39:57;6.22;;;1.08;;
77872;SDS011;67068;52.116;4.440;2023-04-24T12:42:27;7.25;;;1.10;;
77872;SDS011;67068;52.116;4.440;2023-04-24T12:44:55;5.97;;;1.05;;
77872;SDS011;67068;52.116;4.440;2023-04-24T12:47:21;5.57;;;1.17;;
77872;SDS011;67068;52.116;4.440;2023-04-24T12:49:46;5.60;;;1.07;;
77872;SDS011;67068;52.116;4.440;2023-04-24T12:52:11;7.10;;;1.30;;
77872;SDS011;67068;52.116;4.440;2023-04-24T12:54:36;5.63;;;1.23;;
77872;SDS011;67068;52.116;4.440;2023-04-24T12:57:02;5.30;;;1.10;;
77872;SDS011;67068;52.116;4.440;2023-04-24T12:59:27;5.33;;;1.17;;
77872;SDS011;67068;52.116;4.440;2023-04-24T13:01:52;6.00;;;1.20;;
77872;SDS011;67068;52.116;4.440;2023-04-24T13:04:17;5.80;;;1.10;;
77872;SDS011;67068;52.116;4.440;2023-04-24T13:06:43;6.55;;;1.02;;
77872;SDS011;67068;52.116;4.440;2023-04-24T13:09:08;7.47;;;1.30;;
77872;SDS011;67068;52.116;4.440;2023-04-24T13:11:34;5.78;;;1.00;;
77872;SDS011;67068;52.116;4.440;2023-04-24T13:14:00;5.50;;;1.17;;
77872;SDS011;67068;52.116;4.440;2023-04-24T13:16:25;6.67;;;1.10;;
77872;SDS011;67068;52.116;4.440;2023-04-24T13:18:50;7.13;;;1.20;;
77872;SDS011;67068;52.116;4.440;2023-04-24T13:21:15;5.90;;;1.37;;
77872;SDS011;67068;52.116;4.440;2023-04-24T13:23:41;5.80;;;1.10;;
77872;SDS011;67068;52.116;4.440;2023-04-24T13:26:06;7.93;;;1.27;;
77872;SDS011;67068;52.116;4.440;2023-04-24T13:28:32;7.68;;;1.17;;
77872;SDS011;67068;52.116;4.440;2023-04-24T13:30:58;5.27;;;1.10;;
77872;SDS011;67068;52.116;4.440;2023-04-24T13:33:23;7.70;;;1.23;;
77872;SDS011;67068;52.116;4.440;2023-04-24T13:35:48;5.23;;;0.87;;
77872;SDS011;67068;52.116;4.440;2023-04-24T13:38:13;7.27;;;1.50;;
77872;SDS011;67068;52.116;4.440;2023-04-24T13:40:38;7.30;;;1.40;;
77872;SDS011;67068;52.116;4.440;2023-04-24T13:43:04;7.18;;;1.30;;
77872;SDS011;67068;52.116;4.440;2023-04-24T13:45:29;6.18;;;1.10;;
77872;SDS011;67068;52.116;4.440;2023-04-24T13:47:55;5.75;;;1.27;;
77872;SDS011;67068;52.116;4.440;2023-04-24T13:50:21;6.93;;;1.48;;
77872;SDS011;67068;52.116;4.440;2023-04-24T13:52:47;5.55;;;1.08;;
77872;SDS011;67068;52.116;4.440;2023-04-24T13:55:12;5.77;;;1.30;;
77872;SDS011;67068;52.116;4.440;2023-04-24T13:57:37;7.17;;;1.37;;
77872;SDS011;67068;52.116;4.440;2023-04-24T14:00:03;7.30;;;1.65;;
77872;SDS011;67068;52.116;4.440;2023-04-24T14:02:29;7.05;;;1.17;;
77872;SDS011;67068;52.116;4.440;2023-04-24T14:04:54;6.97;;;1.52;;
77872;SDS011;67068;52.116;4.440;2023-04-24T14:07:19;6.28;;;1.10;;
77872;SDS011;67068;52.116;4.440;2023-04-24T14:09:45;7.43;;;1.50;;
77872;SDS011;67068;52.116;4.440;2023-04-24T14:12:10;5.50;;;1.47;;
77872;SDS011;67068;52.116;4.440;2023-04-24T14:14:35;7.17;;;1.60;;
77872;SDS011;67068;52.116;4.440;2023-04-24T14:17:00;6.97;;;1.30;;
77872;SDS011;67068;52.116;4.440;2023-04-24T14:19:26;5.10;;;1.20;;
77872;SDS011;67068;52.116;4.440;2023-04-24T14:21:51;8.73;;;1.47;;
77872;SDS011;67068;52.116;4.440;2023-04-24T14:24:16;7.27;;;1.50;;
77872;SDS011;67068;52.116;4.440;2023-04-24T14:26:41;9.13;;;1.33;;
77872;SDS011;67068;52.116;4.440;2023-04-24T14:29:06;8.30;;;1.50;;
77872;SDS011;67068;52.116;4.440;2023-04-24T14:31:32;7.83;;;2.10;;
77872;SDS011;67068;52.116;4.440;2023-04-24T14:33:57;6.33;;;1.50;;
77872;SDS011;67068;52.116;4.440;2023-04-24T14:36:22;8.67;;;1.67;;
77872;SDS011;67068;52.116;4.440;2023-04-24T14:38:48;5.95;;;1.40;;
77872;SDS011;67068;52.116;4.440;2023-04-24T14:41:13;8.45;;;1.70;;
77872;SDS011;67068;52.116;4.440;2023-04-24T14:43:39;7.03;;;1.63;;
77872;SDS011;67068;52.116;4.440;2023-04-24T14:46:05;5.63;;;1.65;;
77872;SDS011;67068;52.116;4.440;2023-04-24T14:48:30;8.63;;;1.50;;
77872;SDS011;67068;52.116;4.440;2023-04-24T14:50:55;7.80;;;1.70;;